Time;durP1;ratioP1;P1;durP2;ratioP2;P2;SDS_P1;SDS_P2;PMS_P1;PMS_P2;Temp;Humidity;BMP_temperature;BMP_pressure;BME280_temperature;BME280_humidity;BME280_pressure;Samples;Min_cycle;Max_cycle;Signal;HPM_P1;HPM_P2
2022/07/21 00:01:10;;;;;;;16.10;14.60;;;19.90;99.90;;;;;;5050545;28;20463;-68
2022/07/21 00:03:37;;;;;;;16.37;14.77;;;19.90;99.90;;;;;;5050721;28;20456;-69
2022/07/21 00:06:04;;;;;;;16.13;14.63;;;19.90;99.90;;;;;;5050735;28;20480;-69
2022/07/21 00:08:31;;;;;;;14.67;13.27;;;19.90;99.90;;;;;;5052100;28;20456;-69
2022/07/21 00:10:59;;;;;;;14.70;13.30;;;19.80;99.90;;;;;;5052305;28;20460;-68
2022/07/21 00:13:26;;;;;;;15.00;13.60;;;19.80;99.90;;;;;;5052081;28;20872;-69
2022/07/21 00:15:53;;;;;;;14.03;12.83;;;19.80;99.90;;;;;;5052001;28;20488;-70
2022/07/21 00:18:21;;;;;;;13.57;12.20;;;19.80;99.90;;;;;;5051271;28;20896;-70
2022/07/21 00:20:48;;;;;;;14.60;13.40;;;19.80;99.90;;;;;;5049928;28;20460;-70
2022/07/21 00:23:14;;;;;;;14.73;13.43;;;19.70;99.90;;;;;;5050796;28;20590;-69
2022/07/21 00:25:41;;;;;;;13.67;12.43;;;19.70;99.90;;;;;;5050398;28;20830;-69
2022/07/21 00:28:09;;;;;;;14.00;12.80;;;19.60;99.90;;;;;;5050686;28;20463;-69
2022/07/21 00:30:36;;;;;;;15.03;13.70;;;19.70;99.90;;;;;;5049631;28;20460;-69
2022/07/21 00:33:03;;;;;;;13.67;12.37;;;19.60;99.90;;;;;;5050476;28;20464;-69
2022/07/21 00:35:29;;;;;;;14.20;13.00;;;19.60;99.90;;;;;;5050277;28;20484;-70
2022/07/21 00:37:56;;;;;;;14.27;13.07;;;19.60;99.90;;;;;;5050418;28;20495;-69
2022/07/21 00:40:23;;;;;;;14.23;12.93;;;19.60;99.90;;;;;;5049647;28;20978;-69
2022/07/21 00:42:50;;;;;;;13.97;12.80;;;19.60;99.90;;;;;;5050471;28;20806;-70
2022/07/21 00:45:18;;;;;;;14.10;12.63;;;19.60;99.90;;;;;;5050185;28;20484;-68
2022/07/21 00:47:45;;;;;;;14.63;13.23;;;19.60;99.90;;;;;;5050236;28;20974;-69
2022/07/21 00:50:14;;;;;;;13.90;12.70;;;19.60;99.90;;;;;;5049846;28;20461;-70
2022/07/21 00:52:41;;;;;;;14.40;13.10;;;19.60;99.90;;;;;;5049944;28;20464;-68
2022/07/21 00:55:11;;;;;;;15.80;14.30;;;19.60;99.90;;;;;;5050210;28;20484;-70
2022/07/21 00:57:38;;;;;;;14.47;12.97;;;19.60;99.90;;;;;;5049994;28;20488;-69
2022/07/21 01:00:06;;;;;;;13.57;12.40;;;19.60;99.90;;;;;;5049735;28;20460;-69
2022/07/21 01:02:36;;;;;;;14.67;13.40;;;19.60;99.90;;;;;;5049969;28;20864;-69
2022/07/21 01:05:03;;;;;;;13.67;12.47;;;19.60;99.90;;;;;;5050069;28;20504;-69
2022/07/21 01:07:30;;;;;;;13.33;12.07;;;19.60;99.90;;;;;;5049946;28;20452;-68
2022/07/21 01:09:57;;;;;;;12.33;11.23;;;19.60;99.90;;;;;;5049716;28;20471;-69
2022/07/21 01:12:24;;;;;;;12.43;11.13;;;19.60;99.90;;;;;;5050022;28;20877;-69
2022/07/21 01:14:51;;;;;;;11.23;10.23;;;19.60;99.90;;;;;;5050030;28;20864;-69
2022/07/21 01:17:18;;;;;;;12.60;11.40;;;19.50;99.90;;;;;;5050162;28;20487;-69
2022/07/21 01:19:46;;;;;;;12.87;10.77;;;19.50;99.90;;;;;;5049124;28;20955;-68
2022/07/21 01:22:14;;;;;;;11.40;10.30;;;19.40;99.90;;;;;;5052967;28;20471;-69
2022/07/21 01:24:41;;;;;;;12.60;10.87;;;19.40;99.90;;;;;;5055004;28;20838;-70
2022/07/21 01:27:08;;;;;;;11.77;10.67;;;19.40;99.90;;;;;;5055632;28;20518;-70
2022/07/21 01:29:35;;;;;;;11.20;10.20;;;19.40;99.90;;;;;;5054126;28;20806;-70
2022/07/21 01:32:02;;;;;;;11.10;10.10;;;19.40;99.90;;;;;;5055178;28;20471;-68
2022/07/21 01:34:29;;;;;;;11.83;10.77;;;19.40;99.90;;;;;;5054602;28;20467;-70
2022/07/21 01:36:56;;;;;;;11.43;10.20;;;19.40;99.90;;;;;;5054774;28;20487;-68
2022/07/21 01:42:08;;;;;;;10.33;9.43;;;19.40;99.90;;;;;;5054692;28;20488;-68
2022/07/21 01:44:35;;;;;;;11.20;9.80;;;19.30;99.90;;;;;;5054209;28;20952;-69
2022/07/21 01:47:01;;;;;;;9.63;8.73;;;19.30;99.90;;;;;;5054527;28;20463;-70
2022/07/21 01:49:28;;;;;;;10.00;9.10;;;19.30;99.90;;;;;;5053900;28;20460;-69
2022/07/21 01:51:55;;;;;;;10.37;8.83;;;19.30;99.90;;;;;;5054063;28;20459;-69
2022/07/21 01:54:21;;;;;;;10.20;9.37;;;19.30;99.90;;;;;;5054478;28;20471;-70
2022/07/21 01:56:49;;;;;;;10.17;9.27;;;19.30;99.90;;;;;;5053605;28;21013;-69
2022/07/21 01:59:16;;;;;;;12.00;9.27;;;19.30;99.90;;;;;;5053546;28;20468;-70
2022/07/21 02:01:43;;;;;;;15.00;9.57;;;19.30;99.90;;;;;;5053625;28;20467;-70
2022/07/21 02:04:09;;;;;;;9.30;8.40;;;19.30;99.90;;;;;;5053851;28;20476;-69
2022/07/21 02:06:36;;;;;;;9.93;9.03;;;19.20;99.90;;;;;;5053548;28;21006;-69
2022/07/21 02:09:03;;;;;;;10.40;9.00;;;19.20;99.90;;;;;;5053732;28;20459;-70
2022/07/21 02:11:30;;;;;;;9.83;8.90;;;19.20;99.90;;;;;;5053143;28;20460;-70
2022/07/21 02:13:58;;;;;;;9.53;8.73;;;19.20;99.90;;;;;;5053339;28;20471;-69
2022/07/21 02:16:24;;;;;;;9.37;8.57;;;19.20;99.90;;;;;;5053263;28;20484;-68
2022/07/21 02:18:51;;;;;;;10.10;8.37;;;19.20;99.90;;;;;;5053340;28;20487;-69
2022/07/21 02:21:18;;;;;;;9.37;8.33;;;19.20;99.90;;;;;;5052663;28;20464;-69
2022/07/21 02:23:45;;;;;;;10.63;9.63;;;19.20;99.90;;;;;;5052942;28;20471;-70
2022/07/21 02:26:11;;;;;;;9.47;8.57;;;19.20;99.90;;;;;;5053097;28;20603;-69
2022/07/21 02:28:38;;;;;;;9.50;8.70;;;19.20;99.90;;;;;;5052599;28;20461;-70
2022/07/21 02:31:07;;;;;;;9.77;8.87;;;19.20;99.90;;;;;;5052789;28;20840;-70
2022/07/21 02:33:33;;;;;;;10.03;8.47;;;19.20;99.90;;;;;;5052772;28;20468;-70
2022/07/21 02:36:00;;;;;;;9.20;8.17;;;19.10;99.90;;;;;;5052615;28;20491;-69
2022/07/21 02:38:27;;;;;;;9.40;8.47;;;19.20;99.90;;;;;;5052574;28;20952;-70
2022/07/21 02:40:54;;;;;;;12.10;8.80;;;19.20;99.90;;;;;;5051528;28;20467;-69
2022/07/21 02:43:20;;;;;;;9.73;8.77;;;19.10;99.90;;;;;;5051818;28;20488;-68
2022/07/21 02:45:47;;;;;;;8.90;8.00;;;19.10;99.90;;;;;;5052301;28;20484;-69
2022/07/21 02:48:15;;;;;;;10.00;9.03;;;19.10;99.90;;;;;;5052001;28;20484;-70
2022/07/21 02:50:43;;;;;;;9.93;9.03;;;19.10;99.90;;;;;;5051264;28;20468;-69
2022/07/21 02:53:13;;;;;;;9.20;8.40;;;19.10;99.90;;;;;;5051985;28;20470;-70
2022/07/21 02:55:40;;;;;;;8.63;7.93;;;19.10;99.90;;;;;;5051763;28;20475;-69
2022/07/21 02:58:09;;;;;;;10.30;8.67;;;19.10;99.90;;;;;;5051700;28;20483;-69
2022/07/21 03:00:37;;;;;;;8.80;8.00;;;19.10;99.90;;;;;;5051537;28;20471;-69
2022/07/21 03:03:04;;;;;;;10.17;9.17;;;19.10;99.90;;;;;;5053017;28;20468;-69
2022/07/21 03:05:33;;;;;;;9.43;8.53;;;19.10;99.90;;;;;;5053385;28;20480;-69
2022/07/21 03:08:00;;;;;;;11.27;8.30;;;19.10;99.90;;;;;;5052714;28;20491;-69
2022/07/21 03:10:27;;;;;;;10.63;8.80;;;19.10;99.90;;;;;;5052404;28;20811;-70
2022/07/21 03:12:53;;;;;;;8.33;7.57;;;19.10;99.90;;;;;;5052535;28;20840;-70
2022/07/21 03:15:21;;;;;;;9.30;8.40;;;19.10;99.90;;;;;;5127734;22;20665;-70
2022/07/21 03:17:47;;;;;;;9.83;7.87;;;19.10;99.90;;;;;;5078904;28;20473;-70
2022/07/21 03:20:14;;;;;;;9.13;7.87;;;19.10;99.90;;;;;;5091086;28;20466;-70
2022/07/21 03:22:42;;;;;;;8.27;7.40;;;19.00;99.90;;;;;;5091445;28;20464;-70
2022/07/21 03:25:09;;;;;;;8.67;7.97;;;19.00;99.90;;;;;;5091329;28;20477;-70
2022/07/21 03:27:36;;;;;;;10.03;7.63;;;19.00;99.90;;;;;;5091236;28;20489;-70
2022/07/21 03:30:06;;;;;;;8.23;7.53;;;19.00;99.90;;;;;;5090645;28;20512;-69
2022/07/21 03:32:33;;;;;;;8.47;7.60;;;19.00;99.90;;;;;;5089973;28;20458;-69
2022/07/21 03:34:59;;;;;;;9.67;8.23;;;19.00;99.90;;;;;;5070042;28;20481;-68
2022/07/21 03:37:26;;;;;;;8.80;7.90;;;19.00;99.90;;;;;;5070480;28;20462;-68
2022/07/21 03:39:55;;;;;;;7.90;7.20;;;19.00;99.90;;;;;;5069675;28;20478;-68
2022/07/21 03:42:21;;;;;;;8.30;7.60;;;19.00;99.90;;;;;;5070515;28;20455;-69
2022/07/21 03:44:48;;;;;;;9.00;8.20;;;19.00;99.90;;;;;;5069864;28;20542;-69
2022/07/21 03:47:15;;;;;;;8.07;7.33;;;19.00;99.90;;;;;;5069833;28;20464;-68
2022/07/21 03:49:43;;;;;;;8.63;7.80;;;18.90;99.90;;;;;;5068880;28;20451;-68
2022/07/21 03:52:10;;;;;;;7.93;7.23;;;18.90;99.90;;;;;;5069689;28;20451;-68
2022/07/21 03:54:36;;;;;;;8.60;7.90;;;18.90;99.90;;;;;;5069238;28;20463;-68
2022/07/21 03:57:05;;;;;;;9.50;8.60;;;18.90;99.90;;;;;;5070193;28;20455;-68
2022/07/21 03:59:31;;;;;;;9.67;8.40;;;18.90;99.90;;;;;;5066898;28;20451;-68
2022/07/21 04:01:58;;;;;;;8.27;7.57;;;18.90;99.90;;;;;;5065405;28;20459;-68
2022/07/21 04:04:25;;;;;;;8.33;7.63;;;18.90;99.90;;;;;;5067367;28;20470;-68
2022/07/21 04:06:51;;;;;;;9.70;8.70;;;18.90;99.90;;;;;;5069263;28;20835;-68
2022/07/21 04:09:18;;;;;;;8.53;7.73;;;18.90;99.90;;;;;;5065795;28;20486;-69
2022/07/21 04:11:45;;;;;;;9.80;9.00;;;18.90;99.90;;;;;;5069156;28;20466;-67
2022/07/21 04:14:13;;;;;;;8.30;7.60;;;18.90;99.90;;;;;;5069340;28;20487;-68
2022/07/21 04:16:40;;;;;;;9.13;8.43;;;18.80;99.90;;;;;;5069105;28;20483;-67
2022/07/21 04:19:07;;;;;;;7.83;7.07;;;18.90;99.90;;;;;;5068814;28;20462;-68
2022/07/21 04:21:34;;;;;;;8.90;8.00;;;18.90;99.90;;;;;;5069001;28;20462;-68
2022/07/21 04:24:00;;;;;;;10.07;8.37;;;18.80;99.90;;;;;;5069077;28;20459;-68
2022/07/21 04:26:28;;;;;;;8.53;7.70;;;18.80;99.90;;;;;;5069366;28;20851;-67
2022/07/21 04:28:55;;;;;;;8.60;7.90;;;18.80;99.90;;;;;;5069570;28;20572;-69
2022/07/21 04:31:23;;;;;;;7.97;7.27;;;18.80;99.90;;;;;;5070070;28;20459;-68
2022/07/21 04:33:50;;;;;;;8.83;8.00;;;18.80;99.90;;;;;;5067715;28;20977;-68
2022/07/21 04:36:16;;;;;;;8.57;7.77;;;18.80;99.90;;;;;;5069542;28;20897;-68
2022/07/21 04:38:43;;;;;;;8.70;8.00;;;18.80;99.90;;;;;;5070172;28;20455;-68
2022/07/21 04:41:10;;;;;;;9.20;8.40;;;18.80;99.90;;;;;;5070158;28;20463;-67
2022/07/21 04:43:36;;;;;;;8.73;8.00;;;18.80;99.90;;;;;;5070393;28;20463;-68
2022/07/21 04:46:03;;;;;;;8.83;8.03;;;18.80;99.90;;;;;;5070331;28;20494;-68
2022/07/21 04:48:31;;;;;;;8.60;7.67;;;18.80;99.90;;;;;;5070203;28;21021;-68
2022/07/21 04:50:58;;;;;;;9.43;8.63;;;18.80;99.90;;;;;;5069845;28;20464;-68
2022/07/21 04:53:24;;;;;;;7.87;7.13;;;18.80;99.90;;;;;;5070269;28;20474;-68
2022/07/21 04:55:51;;;;;;;8.67;7.77;;;18.70;99.90;;;;;;5071452;28;20853;-69
2022/07/21 04:58:18;;;;;;;9.37;8.47;;;18.80;99.90;;;;;;5074342;28;20459;-68
2022/07/21 05:00:45;;;;;;;8.40;7.70;;;18.80;99.90;;;;;;5074023;28;20520;-68
2022/07/21 05:03:13;;;;;;;9.40;8.50;;;18.80;99.90;;;;;;5074534;28;20463;-67
2022/07/21 05:05:41;;;;;;;9.40;8.50;;;18.80;99.90;;;;;;5074096;28;20893;-68
2022/07/21 05:08:08;;;;;;;9.10;8.37;;;18.80;99.90;;;;;;5073029;28;20487;-68
2022/07/21 05:10:35;;;;;;;9.67;8.73;;;18.90;99.90;;;;;;5091559;28;20950;-69
2022/07/21 05:13:01;;;;;;;10.10;9.20;;;18.80;99.90;;;;;;5092881;28;20469;-69
2022/07/21 05:15:28;;;;;;;9.73;8.73;;;18.80;99.90;;;;;;5091615;28;20485;-67
2022/07/21 05:17:55;;;;;;;9.30;8.50;;;18.80;99.90;;;;;;5092697;28;20519;-68
2022/07/21 05:20:23;;;;;;;8.90;8.20;;;18.80;99.90;;;;;;5092141;28;20470;-68
2022/07/21 05:22:51;;;;;;;9.53;8.70;;;18.90;99.90;;;;;;5092472;28;20462;-69
2022/07/21 05:25:18;;;;;;;8.83;8.03;;;18.80;99.90;;;;;;5092621;28;20486;-68
2022/07/21 05:27:45;;;;;;;9.23;8.33;;;18.90;99.90;;;;;;5092241;28;20464;-67
2022/07/21 05:30:12;;;;;;;10.57;9.57;;;19.00;99.90;;;;;;5091549;28;20488;-68
2022/07/21 05:32:39;;;;;;;9.40;8.50;;;19.00;99.90;;;;;;5092347;28;20454;-67
2022/07/21 05:35:10;;;;;;;9.87;9.00;;;19.00;99.90;;;;;;5092473;28;20511;-68
2022/07/21 05:37:38;;;;;;;9.43;8.63;;;19.10;99.90;;;;;;5091898;28;20470;-68
2022/07/21 05:40:08;;;;;;;9.47;8.53;;;19.10;99.90;;;;;;5091374;28;20463;-68
2022/07/21 05:42:36;;;;;;;9.97;9.00;;;19.20;99.90;;;;;;5092291;28;20481;-68
2022/07/21 05:45:04;;;;;;;9.93;9.03;;;19.20;99.90;;;;;;5091701;28;20552;-69
2022/07/21 05:47:32;;;;;;;10.67;9.63;;;19.30;99.90;;;;;;5092105;28;20516;-68
2022/07/21 05:49:59;;;;;;;11.70;10.50;;;19.30;99.90;;;;;;5091269;28;20609;-68
2022/07/21 05:52:27;;;;;;;10.33;9.30;;;19.40;99.90;;;;;;5091503;28;20466;-69
2022/07/21 05:54:54;;;;;;;10.10;9.20;;;19.40;99.90;;;;;;5091930;28;20475;-66
2022/07/21 05:57:22;;;;;;;10.40;9.30;;;19.40;99.90;;;;;;5092374;28;20501;-66
2022/07/21 05:59:49;;;;;;;10.47;9.47;;;19.50;99.90;;;;;;5090598;28;20520;-65
2022/07/21 06:02:16;;;;;;;9.87;8.87;;;19.60;99.90;;;;;;5092202;28;20458;-66
2022/07/21 06:04:43;;;;;;;10.10;9.10;;;19.60;99.90;;;;;;5091304;28;20458;-68
2022/07/21 06:07:10;;;;;;;9.37;8.47;;;19.60;99.90;;;;;;5091452;28;20465;-66
2022/07/21 06:09:37;;;;;;;12.53;11.43;;;19.70;99.90;;;;;;5090944;28;21049;-65
2022/07/21 06:12:05;;;;;;;10.20;9.20;;;19.70;99.90;;;;;;5092119;28;20462;-66
2022/07/21 06:14:34;;;;;;;9.67;8.67;;;19.70;99.90;;;;;;5091265;28;20462;-67
2022/07/21 06:17:01;;;;;;;10.53;9.60;;;19.80;99.90;;;;;;5091382;28;20553;-68
2022/07/21 06:19:28;;;;;;;11.10;10.00;;;19.80;99.90;;;;;;5090895;28;20462;-68
2022/07/21 06:21:55;;;;;;;10.50;9.50;;;19.80;99.90;;;;;;5091041;28;20513;-67
2022/07/21 06:24:23;;;;;;;9.90;9.00;;;19.90;99.90;;;;;;5092059;28;20477;-67
2022/07/21 06:26:50;;;;;;;10.10;9.20;;;19.90;99.90;;;;;;5091375;28;21042;-68
2022/07/21 06:29:17;;;;;;;10.30;9.37;;;19.90;99.90;;;;;;5090092;28;20496;-68
2022/07/21 06:31:46;;;;;;;10.17;9.17;;;20.00;99.90;;;;;;5091420;28;21009;-68
2022/07/21 06:34:12;;;;;;;9.90;9.07;;;20.00;99.90;;;;;;5089610;28;20459;-68
2022/07/21 06:36:39;;;;;;;9.00;8.30;;;19.90;99.90;;;;;;5081815;28;20475;-67
2022/07/21 06:39:06;;;;;;;10.17;9.17;;;20.00;99.90;;;;;;5071338;28;20972;-67
2022/07/21 06:41:33;;;;;;;9.90;8.90;;;20.00;99.90;;;;;;5071557;28;20471;-67
2022/07/21 06:44:01;;;;;;;8.90;8.00;;;20.00;99.90;;;;;;5071335;28;20830;-67
2022/07/21 06:46:28;;;;;;;9.63;8.37;;;20.00;99.90;;;;;;5071983;28;20479;-67
2022/07/21 06:48:56;;;;;;;12.43;9.17;;;20.10;99.90;;;;;;5071416;28;20513;-67
2022/07/21 06:51:23;;;;;;;9.73;8.80;;;20.10;99.90;;;;;;5071157;28;20463;-67
2022/07/21 06:53:50;;;;;;;8.87;7.97;;;20.20;99.90;;;;;;5070964;28;20456;-66
2022/07/21 06:56:18;;;;;;;9.13;8.37;;;20.20;99.90;;;;;;5071547;28;20486;-67
2022/07/21 06:58:44;;;;;;;9.13;8.33;;;20.20;99.90;;;;;;5070860;28;20467;-67
2022/07/21 07:01:13;;;;;;;8.70;7.93;;;20.20;99.90;;;;;;5070852;28;20459;-68
2022/07/21 07:03:40;;;;;;;9.00;8.10;;;20.20;99.90;;;;;;5071476;28;20463;-66
2022/07/21 07:06:09;;;;;;;9.27;8.37;;;20.30;99.90;;;;;;5070548;28;20489;-66
2022/07/21 07:08:36;;;;;;;11.17;8.33;;;20.30;99.90;;;;;;5071466;28;20946;-67
2022/07/21 07:11:04;;;;;;;10.90;9.10;;;20.40;99.90;;;;;;5068940;28;20562;-67
2022/07/21 07:13:30;;;;;;;9.73;8.83;;;20.50;99.90;;;;;;5071413;28;20455;-68
2022/07/21 07:15:57;;;;;;;10.13;8.93;;;20.50;99.90;;;;;;5070628;28;20495;-67
2022/07/21 07:18:25;;;;;;;10.97;8.20;;;20.60;99.90;;;;;;5069697;28;20550;-67
2022/07/21 07:20:51;;;;;;;9.47;7.67;;;20.60;99.90;;;;;;5070447;28;20470;-67
2022/07/21 07:23:20;;;;;;;9.00;8.20;;;20.60;99.90;;;;;;5070915;28;20459;-67
2022/07/21 07:25:47;;;;;;;9.93;8.47;;;20.70;99.90;;;;;;5070497;28;20578;-67
2022/07/21 07:28:14;;;;;;;8.00;7.37;;;20.70;99.90;;;;;;5071143;28;20490;-67
2022/07/21 07:30:40;;;;;;;9.50;7.70;;;20.80;99.90;;;;;;5090534;28;20850;-67
2022/07/21 07:33:07;;;;;;;8.87;8.07;;;20.80;99.90;;;;;;5091463;28;20466;-67
2022/07/21 07:35:34;;;;;;;8.37;7.60;;;20.90;99.90;;;;;;5091186;28;20832;-67
2022/07/21 07:38:01;;;;;;;8.80;7.70;;;20.90;99.90;;;;;;5091404;28;20459;-67
2022/07/21 07:40:29;;;;;;;8.80;7.63;;;21.00;99.90;;;;;;5090959;28;20454;-67
2022/07/21 07:42:56;;;;;;;8.67;7.33;;;21.10;99.90;;;;;;5090711;28;20848;-67
2022/07/21 07:45:23;;;;;;;8.37;7.57;;;21.20;99.90;;;;;;5091171;28;21214;-67
2022/07/21 07:47:50;;;;;;;7.80;7.07;;;21.20;99.90;;;;;;5091286;28;20469;-68
2022/07/21 07:50:17;;;;;;;8.37;7.67;;;21.30;99.90;;;;;;5090552;28;20584;-67
2022/07/21 07:52:46;;;;;;;8.30;7.50;;;21.40;99.90;;;;;;5091261;28;20464;-68
2022/07/21 07:55:13;;;;;;;9.33;7.73;;;21.40;99.90;;;;;;5086656;28;20487;-67
2022/07/21 07:57:43;;;;;;;8.93;8.03;;;21.50;99.90;;;;;;5091035;28;20488;-67
2022/07/21 08:00:12;;;;;;;9.10;8.30;;;21.50;99.90;;;;;;5090550;28;20450;-68
2022/07/21 08:02:39;;;;;;;9.10;8.20;;;21.60;99.90;;;;;;5090939;28;20821;-67
2022/07/21 08:05:14;;;;;;;8.00;7.30;;;21.80;99.90;;;;;;5090620;28;20478;-67
2022/07/21 08:07:41;;;;;;;8.30;7.40;;;21.80;99.90;;;;;;5068205;28;20462;-66
2022/07/21 08:10:11;;;;;;;8.13;7.43;;;21.80;99.90;;;;;;5068987;28;20516;-68
2022/07/21 08:12:40;;;;;;;7.90;7.17;;;21.80;99.90;;;;;;5069921;28;20810;-67
2022/07/21 08:15:10;;;;;;;7.07;6.37;;;21.80;99.90;;;;;;5069760;28;20487;-67
2022/07/21 08:17:37;;;;;;;8.00;7.20;;;21.90;99.90;;;;;;5068991;28;20969;-68
2022/07/21 08:20:06;;;;;;;8.33;7.63;;;22.00;99.90;;;;;;5068515;28;20887;-68
2022/07/21 08:22:33;;;;;;;8.63;6.87;;;22.10;99.90;;;;;;5070118;28;20486;-68
2022/07/21 08:25:00;;;;;;;8.70;6.80;;;22.20;99.90;;;;;;5069029;28;20483;-67
2022/07/21 08:27:27;;;;;;;7.00;6.40;;;22.30;99.90;;;;;;5076789;28;20493;-68
2022/07/21 08:29:54;;;;;;;8.30;7.60;;;22.40;99.90;;;;;;5070675;28;20480;-69
2022/07/21 08:32:22;;;;;;;7.40;6.70;;;22.50;99.90;;;;;;5074406;28;20460;-69
2022/07/21 08:34:49;;;;;;;7.33;5.87;;;22.60;99.90;;;;;;5074209;28;20469;-69
2022/07/21 08:37:15;;;;;;;6.90;6.30;;;22.60;99.90;;;;;;5074826;28;20462;-70
2022/07/21 08:39:42;;;;;;;6.90;6.07;;;22.70;99.90;;;;;;5073564;28;20457;-70
2022/07/21 08:42:10;;;;;;;6.20;5.70;;;22.60;99.90;;;;;;5074970;28;20468;-69
2022/07/21 08:44:40;;;;;;;6.70;6.10;;;22.60;99.90;;;;;;5074377;28;20468;-68
2022/07/21 08:47:07;;;;;;;6.13;5.60;;;22.60;99.90;;;;;;5074133;28;20874;-69
2022/07/21 08:49:36;;;;;;;7.10;6.03;;;22.60;99.90;;;;;;5074032;28;20471;-69
2022/07/21 08:52:08;;;;;;;7.07;6.37;;;22.60;99.90;;;;;;5073097;28;20551;-69
2022/07/21 08:54:35;;;;;;;8.57;6.50;;;22.60;99.90;;;;;;5074524;28;20463;-69
2022/07/21 08:57:02;;;;;;;6.53;5.90;;;22.90;99.90;;;;;;5073889;28;20463;-69
2022/07/21 08:59:30;;;;;;;6.27;5.77;;;22.90;99.90;;;;;;5073953;28;20470;-70
2022/07/21 09:01:57;;;;;;;6.90;6.20;;;23.00;99.90;;;;;;5073869;28;20551;-70
2022/07/21 09:04:26;;;;;;;6.53;6.00;;;23.10;99.90;;;;;;5074429;28;20468;-69
2022/07/21 09:06:57;;;;;;;6.07;5.57;;;23.10;99.90;;;;;;5074040;28;20484;-70
2022/07/21 09:09:25;;;;;;;6.60;6.10;;;23.10;99.90;;;;;;5073287;28;20775;-69
2022/07/21 09:12:10;;;;;;;5.77;5.33;;;23.10;99.90;;;;;;5074087;28;20970;-69
2022/07/21 09:14:36;;;;;;;6.10;5.50;;;23.00;99.90;;;;;;5074232;28;20466;-69
2022/07/21 09:17:05;;;;;;;7.07;6.40;;;23.10;99.90;;;;;;5075995;22;20838;-91
2022/07/21 09:19:38;;;;;;;7.60;6.90;;;23.00;99.90;;;;;;5053132;28;20883;-90
2022/07/21 09:22:24;;;;;;;6.43;5.83;;;23.00;99.90;;;;;;5054760;28;20505;-92
2022/07/21 09:25:50;;;;;;;6.73;6.10;;;23.10;99.90;;;;;;5054782;28;20453;-92
2022/07/21 09:28:19;;;;;;;6.97;5.93;;;23.20;99.90;;;;;;5025195;28;21018;-90
2022/07/21 09:31:03;;;;;;;6.70;6.10;;;23.50;99.90;;;;;;5033119;28;21030;-91
2022/07/21 09:33:34;;;;;;;6.37;5.80;;;23.70;99.90;;;;;;5032470;28;20461;-92
2022/07/21 09:36:04;;;;;;;5.57;5.07;;;23.80;99.90;;;;;;5034748;28;20477;-91
2022/07/21 09:38:35;;;;;;;6.07;5.53;;;23.80;99.90;;;;;;5034596;28;20481;-91
2022/07/21 09:41:10;;;;;;;7.60;5.33;;;23.90;99.90;;;;;;5033302;28;20462;-91
2022/07/21 09:43:42;;;;;;;9.90;6.27;;;23.80;99.90;;;;;;5034152;28;20485;-90
2022/07/21 09:46:12;;;;;;;6.43;5.83;;;23.80;99.90;;;;;;5035237;28;20481;-91
2022/07/21 09:48:40;;;;;;;6.07;5.57;;;23.90;99.90;;;;;;5033994;28;20465;-91
2022/07/21 09:51:21;;;;;;;6.00;5.50;;;24.00;99.90;;;;;;5034334;28;20488;-91
2022/07/21 09:53:52;;;;;;;5.33;4.93;;;24.10;99.90;;;;;;5035588;28;20966;-91
2022/07/21 09:56:19;;;;;;;5.53;5.03;;;24.10;99.90;;;;;;5036052;28;20487;-91
2022/07/21 09:58:47;;;;;;;6.27;5.63;;;24.10;99.90;;;;;;5035698;28;20461;-91
2022/07/21 10:01:15;;;;;;;5.80;5.30;;;24.20;99.90;;;;;;5035287;28;20887;-91
2022/07/21 10:03:44;;;;;;;5.33;4.93;;;24.30;99.90;;;;;;5034545;28;20489;-91
2022/07/21 10:06:11;;;;;;;6.10;4.67;;;24.30;99.90;;;;;;5035043;28;20556;-91
2022/07/21 10:08:39;;;;;;;6.10;5.20;;;24.30;99.90;;;;;;5034560;28;20467;-91
2022/07/21 10:11:07;;;;;;;5.90;4.93;;;24.30;99.90;;;;;;5034304;28;20493;-91
2022/07/21 10:13:34;;;;;;;5.63;4.63;;;24.40;99.90;;;;;;5034899;28;20468;-92
2022/07/21 10:16:02;;;;;;;5.80;5.20;;;24.50;99.90;;;;;;5033816;28;20496;-91
2022/07/21 10:18:32;;;;;;;14.20;6.90;;;24.70;99.90;;;;;;5033479;28;20467;-91
2022/07/21 10:21:09;;;;;;;21.10;7.87;;;24.90;99.90;;;;;;5033348;28;20828;-90
2022/07/21 10:23:40;;;;;;;5.00;4.50;;;25.00;99.90;;;;;;5033698;28;20503;-91
2022/07/21 10:26:10;;;;;;;6.63;5.23;;;25.00;99.90;;;;;;5034606;28;21014;-91
2022/07/21 10:28:37;;;;;;;9.40;5.73;;;24.90;99.90;;;;;;5035007;28;20472;-91
2022/07/21 10:31:15;;;;;;;5.33;4.07;;;25.10;99.90;;;;;;5034091;28;20499;-91
2022/07/21 10:33:56;;;;;;;4.37;4.07;;;25.30;99.90;;;;;;5033562;28;20452;-91
2022/07/21 10:36:48;;;;;;;4.30;3.87;;;25.20;99.90;;;;;;5033565;28;20491;-91
2022/07/21 10:39:25;;;;;;;5.03;4.30;;;25.10;99.90;;;;;;5032829;28;20957;-91
2022/07/21 10:41:56;;;;;;;4.57;4.17;;;24.90;99.90;;;;;;5031238;28;20464;-92
2022/07/21 10:44:48;;;;;;;4.77;4.47;;;25.10;99.90;;;;;;5039402;28;20800;-91
2022/07/21 10:47:19;;;;;;;5.53;4.37;;;25.20;99.90;;;;;;5039567;28;20472;-93
2022/07/21 10:49:49;;;;;;;4.80;4.30;;;25.40;99.90;;;;;;5035178;28;20526;-93
2022/07/21 10:52:54;;;;;;;4.57;4.20;;;25.70;99.90;;;;;;5034914;28;20560;-92
2022/07/21 10:55:27;;;;;;;4.60;4.20;;;25.80;99.90;;;;;;5033405;28;20476;-92
2022/07/21 10:58:16;;;;;;;4.67;4.20;;;25.80;99.90;;;;;;5033384;28;20464;-91
2022/07/21 11:00:49;;;;;;;4.20;3.90;;;25.80;99.90;;;;;;5034033;28;20500;-93
2022/07/21 11:03:28;;;;;;;4.23;3.93;;;26.00;99.90;;;;;;5032443;28;21665;-91
2022/07/21 11:06:18;;;;;;;5.20;4.70;;;26.10;99.90;;;;;;5033309;28;20523;-90
2022/07/21 11:08:46;;;;;;;4.57;4.10;;;26.10;99.90;;;;;;5030104;28;20461;-90
2022/07/21 11:11:14;;;;;;;4.30;3.90;;;26.00;99.90;;;;;;5033276;28;20468;-91
2022/07/21 11:14:08;;;;;;;4.23;3.83;;;25.80;99.90;;;;;;5034246;28;20866;-90
2022/07/21 11:17:07;;;;;;;5.43;4.00;;;25.80;99.90;;;;;;5032419;28;20492;-91
2022/07/21 11:19:38;;;;;;;4.10;3.80;;;25.70;99.90;;;;;;5030141;28;20461;-89
2022/07/21 11:22:07;;;;;;;3.80;3.43;;;25.60;99.90;;;;;;5035007;28;21012;-91
2022/07/21 11:24:35;;;;;;;5.47;4.13;;;25.50;99.90;;;;;;5036966;28;20472;-91
2022/07/21 11:27:04;;;;;;;4.00;3.70;;;25.30;99.90;;;;;;5036702;28;20521;-90
2022/07/21 11:29:33;;;;;;;5.17;3.73;;;25.20;99.90;;;;;;5044724;28;20466;-92
2022/07/21 11:32:02;;;;;;;5.10;4.70;;;25.30;99.90;;;;;;5054459;28;20464;-91
2022/07/21 11:34:39;;;;;;;4.77;4.37;;;25.60;99.90;;;;;;5033544;28;20475;-91
2022/07/21 11:37:06;;;;;;;4.63;4.23;;;25.90;99.90;;;;;;5034582;28;20485;-90
2022/07/21 11:39:33;;;;;;;4.83;4.43;;;26.00;99.90;;;;;;5033240;28;20473;-90
2022/07/21 11:42:04;;;;;;;4.20;3.90;;;25.80;99.90;;;;;;5033644;28;20492;-90
2022/07/21 11:44:32;;;;;;;7.30;5.30;;;25.70;99.90;;;;;;5033273;28;20485;-91
2022/07/21 11:47:00;;;;;;;3.77;3.47;;;25.70;99.90;;;;;;5033388;28;20481;-91
2022/07/21 11:49:34;;;;;;;4.73;4.43;;;25.90;99.90;;;;;;5032269;28;20523;-91
2022/07/21 11:52:05;;;;;;;4.20;3.80;;;26.30;99.90;;;;;;5033527;28;20466;-91
2022/07/21 11:54:35;;;;;;;4.37;3.97;;;26.70;99.90;;;;;;5032553;28;20548;-91
2022/07/21 11:57:04;;;;;;;6.80;4.27;;;26.90;99.60;;;;;;5031457;28;20492;-91
2022/07/21 11:59:33;;;;;;;4.80;4.40;;;26.90;99.60;;;;;;5027733;28;20457;-92
2022/07/21 12:02:02;;;;;;;4.17;3.87;;;26.80;99.90;;;;;;5034633;28;20488;-93
2022/07/21 12:04:34;;;;;;;4.80;4.40;;;26.50;99.50;;;;;;5040448;28;20916;-93
2022/07/21 12:07:14;;;;;;;5.00;4.53;;;26.20;99.30;;;;;;5033529;28;20487;-93
2022/07/21 12:09:44;;;;;;;4.80;4.30;;;26.10;99.90;;;;;;5028617;28;20468;-94
2022/07/21 12:12:28;;;;;;;4.33;3.93;;;26.30;99.90;;;;;;5037478;28;20465;-93
2022/07/21 12:14:57;;;;;;;4.50;4.10;;;26.30;99.90;;;;;;5036884;28;21003;-92
2022/07/21 12:17:36;;;;;;;4.67;4.33;;;26.20;99.90;;;;;;5038041;28;20449;-93
2022/07/21 12:20:04;;;;;;;4.13;3.73;;;26.20;99.90;;;;;;5038922;28;20460;-93
2022/07/21 12:22:39;;;;;;;4.30;4.00;;;26.20;99.90;;;;;;5037372;28;20978;-94
2022/07/21 12:25:08;;;;;;;4.20;3.90;;;26.70;99.90;;;;;;5038120;28;21032;-93
2022/07/21 12:27:36;;;;;;;4.40;4.00;;;27.10;99.90;;;;;;5038880;28;20465;-93
2022/07/21 12:30:18;;;;;;;4.70;4.30;;;27.40;99.60;;;;;;5037866;28;20624;-93
2022/07/21 12:32:48;;;;;;;3.90;3.60;;;27.40;99.90;;;;;;5039787;28;20461;-93
2022/07/21 12:35:24;;;;;;;3.97;3.67;;;27.30;99.70;;;;;;5038931;28;20520;-93
2022/07/21 12:38:00;;;;;;;4.57;4.23;;;27.20;99.00;;;;;;5039729;28;20564;-93
2022/07/21 12:40:28;;;;;;;4.37;4.07;;;27.10;97.60;;;;;;5035932;28;20853;-91
2022/07/21 12:43:22;;;;;;;4.80;4.30;;;26.90;99.30;;;;;;5033862;28;20461;-90
2022/07/21 12:45:53;;;;;;;4.37;4.07;;;26.60;99.50;;;;;;5018905;28;20484;-91
2022/07/21 12:48:21;;;;;;;4.00;3.60;;;26.70;99.90;;;;;;5032217;28;20483;-91
2022/07/21 12:51:04;;;;;;;4.47;4.07;;;26.90;99.90;;;;;;5033123;28;20464;-91
2022/07/21 12:53:32;;;;;;;4.47;4.17;;;26.90;98.80;;;;;;5032562;28;20468;-91
2022/07/21 12:55:59;;;;;;;4.90;4.10;;;26.80;99.90;;;;;;5032588;28;20810;-91